createdAt,value
2022-08-11T00:01:27.719Z,3.50
2022-08-11T00:04:05.826Z,3.03
2022-08-11T00:06:36.878Z,3.23
2022-08-11T00:09:08.264Z,2.90
2022-08-11T00:11:44.916Z,2.63
2022-08-11T00:14:22.217Z,3.03
2022-08-11T00:17:04.943Z,2.80
2022-08-11T00:20:14.977Z,2.63
2022-08-11T00:22:26.175Z,2.77
2022-08-11T00:24:58.551Z,2.60
2022-08-11T00:27:37.477Z,2.80
2022-08-11T00:30:10.552Z,2.80
2022-08-11T00:32:40.825Z,3.00
2022-08-11T00:35:53.663Z,2.63
2022-08-11T00:38:04.246Z,3.10
2022-08-11T00:40:53.410Z,2.63
2022-08-11T00:43:53.549Z,2.97
2022-08-11T00:46:26.849Z,3.23
2022-08-11T00:49:14.549Z,3.53
2022-08-11T00:52:10.201Z,3.40
2022-08-11T00:55:14.398Z,3.30
2022-08-11T00:58:21.764Z,3.40
2022-08-11T01:01:14.019Z,3.30
2022-08-11T01:03:47.332Z,3.07
2022-08-11T01:06:20.587Z,3.00
2022-08-11T01:09:25.225Z,3.00
2022-08-11T01:12:20.982Z,2.83
2022-08-11T01:14:55.661Z,3.30
2022-08-11T01:17:41.759Z,3.30
2022-08-11T01:20:46.010Z,3.10
2022-08-11T01:23:52.658Z,3.50
2022-08-11T01:26:54.793Z,3.33
2022-08-11T01:29:36.935Z,4.00
2022-08-11T01:32:04.389Z,3.33
2022-08-11T01:35:09.632Z,3.13
2022-08-11T01:37:42.751Z,3.40
2022-08-11T01:40:28.416Z,3.90
2022-08-11T01:43:28.628Z,3.47
2022-08-11T01:46:08.373Z,3.00
2022-08-11T01:49:28.983Z,4.00
2022-08-11T01:52:14.715Z,3.60
2022-08-11T01:55:07.890Z,3.97
2022-08-11T01:57:42.338Z,3.87
2022-08-11T02:00:29.092Z,3.30
2022-08-11T02:03:16.992Z,3.57
2022-08-11T02:06:24.999Z,3.70
2022-08-11T02:09:11.538Z,3.47
2022-08-11T02:11:41.057Z,4.27
2022-08-11T02:14:38.131Z,3.60
2022-08-11T02:17:20.743Z,3.40
2022-08-11T02:20:33.187Z,3.23
2022-08-11T02:24:03.984Z,3.30
2022-08-11T02:26:23.496Z,3.47
2022-08-11T02:29:12.438Z,3.40
2022-08-11T02:32:33.793Z,3.53
2022-08-11T02:35:13.285Z,3.70
2022-08-11T02:37:58.534Z,3.80
2022-08-11T02:40:50.916Z,3.60
2022-08-11T02:43:31.895Z,4.10
2022-08-11T02:46:18.169Z,3.63
2022-08-11T02:49:12.361Z,3.37
2022-08-11T02:51:55.356Z,3.30
2022-08-11T02:54:39.220Z,3.70
2022-08-11T02:57:29.028Z,3.77
2022-08-11T02:59:59.041Z,3.60
2022-08-11T03:02:32.148Z,4.03
2022-08-11T03:05:13.917Z,3.40
2022-08-11T03:08:08.634Z,3.30
2022-08-11T03:11:13.182Z,4.20
2022-08-11T03:14:28.252Z,3.77
2022-08-11T03:17:11.069Z,3.83
2022-08-11T03:20:06.459Z,3.50
2022-08-11T03:22:43.589Z,3.77
2022-08-11T03:25:31.789Z,3.70
2022-08-11T03:28:24.713Z,3.90
2022-08-11T03:30:55.021Z,3.70
2022-08-11T03:33:49.140Z,4.07
2022-08-11T03:37:14.865Z,4.17
2022-08-11T03:39:56.852Z,4.00
2022-08-11T03:42:42.372Z,3.53
2022-08-11T03:45:31.541Z,4.43
2022-08-11T03:48:23.014Z,4.10
2022-08-11T03:51:22.371Z,4.10
2022-08-11T03:54:38.441Z,3.77
2022-08-11T03:57:40.637Z,4.57
2022-08-11T04:00:34.101Z,4.00
2022-08-11T04:03:19.653Z,3.60
2022-08-11T04:06:32.015Z,4.23
2022-08-11T04:09:02.267Z,3.67
2022-08-11T04:12:00.428Z,4.37
2022-08-11T04:15:06.681Z,4.53
2022-08-11T04:17:55.064Z,4.27
2022-08-11T04:21:01.142Z,4.40
2022-08-11T04:24:35.585Z,4.43
2022-08-11T04:26:53.453Z,4.00
2022-08-11T04:30:03.518Z,4.13
2022-08-11T04:32:44.718Z,4.80
2022-08-11T04:35:36.691Z,4.47
2022-08-11T04:38:31.154Z,4.67
2022-08-11T04:41:26.758Z,4.60
2022-08-11T04:44:20.217Z,4.20
2022-08-11T04:47:06.441Z,5.33
2022-08-11T04:50:23.446Z,4.87
2022-08-11T04:53:21.964Z,5.37
2022-08-11T04:56:45.206Z,5.33
2022-08-11T04:59:47.468Z,4.87
2022-08-11T05:03:05.282Z,4.50
2022-08-11T05:06:05.969Z,5.77
2022-08-11T05:08:39.416Z,5.60
2022-08-11T05:11:39.043Z,5.97
2022-08-11T05:14:31.511Z,5.90
2022-08-11T05:17:24.701Z,4.50
2022-08-11T05:20:10.723Z,4.10
2022-08-11T05:23:02.184Z,4.17
2022-08-11T05:26:44.597Z,4.10
2022-08-11T05:29:19.748Z,4.47
2022-08-11T05:32:17.552Z,4.30
2022-08-11T05:34:54.553Z,3.73
2022-08-11T05:37:33.923Z,3.67
2022-08-11T05:40:29.680Z,3.80
2022-08-11T05:43:31.328Z,3.80
2022-08-11T05:46:23.319Z,3.63
2022-08-11T05:49:10.498Z,3.93
2022-08-11T05:55:07.276Z,3.77
2022-08-11T05:57:49.766Z,3.57
2022-08-11T06:00:19.932Z,3.57
2022-08-11T06:02:57.193Z,3.60
2022-08-11T06:05:44.058Z,3.50
2022-08-11T06:08:15.576Z,3.43
2022-08-11T06:10:45.309Z,3.20
2022-08-11T06:13:17.184Z,3.30
2022-08-11T06:15:47.716Z,3.10
2022-08-11T06:18:16.569Z,2.37
2022-08-11T06:20:54.097Z,2.83
2022-08-11T06:23:25.097Z,2.60
2022-08-11T06:25:56.099Z,2.43
2022-08-11T06:28:45.166Z,2.80
2022-08-11T06:31:19.635Z,2.97
2022-08-11T06:34:27.346Z,2.57
2022-08-11T06:37:07.143Z,3.07
2022-08-11T06:39:47.790Z,3.07
2022-08-11T06:42:38.982Z,2.70
2022-08-11T06:45:40.543Z,3.17
2022-08-11T06:48:17.071Z,2.40
2022-08-11T06:51:12.155Z,2.50
2022-08-11T06:54:03.802Z,2.57
2022-08-11T06:57:29.388Z,2.70
2022-08-11T07:00:03.610Z,3.00
2022-08-11T07:02:34.432Z,2.40
2022-08-11T07:05:20.660Z,3.17
2022-08-11T07:08:33.875Z,3.00
2022-08-11T07:11:43.096Z,2.50
2022-08-11T07:14:35.014Z,2.73
2022-08-11T07:17:08.830Z,2.67
2022-08-11T07:19:57.871Z,2.47
2022-08-11T07:22:49.352Z,2.90
2022-08-11T07:25:36.036Z,2.50
2022-08-11T07:28:33.436Z,2.60
2022-08-11T07:31:09.584Z,3.00
2022-08-11T07:34:08.309Z,2.60
2022-08-11T07:36:45.806Z,2.80
2022-08-11T07:39:24.456Z,2.53
2022-08-11T07:41:54.703Z,2.97
2022-08-11T07:44:29.417Z,2.97
2022-08-11T07:47:19.325Z,2.50
2022-08-11T07:50:08.437Z,2.77
2022-08-11T07:52:38.114Z,2.47
2022-08-11T07:55:17.333Z,2.47
2022-08-11T07:58:16.934Z,2.30
2022-08-11T08:01:16.076Z,2.67
2022-08-11T08:04:08.985Z,2.80
2022-08-11T08:06:56.401Z,2.30
2022-08-11T08:09:43.857Z,2.50
2022-08-11T08:12:31.241Z,2.80
2022-08-11T08:15:18.267Z,2.80
2022-08-11T08:18:09.248Z,2.53
2022-08-11T08:20:50.455Z,2.50
2022-08-11T08:23:33.332Z,2.17
2022-08-11T08:26:04.748Z,2.50
2022-08-11T08:28:34.333Z,2.57
2022-08-11T08:31:02.188Z,2.30
2022-08-11T08:33:31.928Z,2.27
2022-08-11T08:36:15.418Z,2.30
2022-08-11T08:38:50.520Z,2.10
2022-08-11T08:41:23.016Z,1.97
2022-08-11T08:43:55.850Z,2.30
2022-08-11T08:46:43.836Z,2.10
2022-08-11T08:49:16.433Z,2.17
2022-08-11T08:52:01.493Z,2.30
2022-08-11T08:54:39.773Z,2.23
2022-08-11T08:57:09.129Z,2.17
2022-08-11T08:59:47.627Z,2.20
2022-08-11T09:02:34.816Z,2.07
2022-08-11T09:05:05.032Z,1.90
2022-08-11T09:07:39.634Z,2.07
2022-08-11T09:10:10.846Z,1.87
2022-08-11T09:12:42.656Z,1.93
2022-08-11T09:15:12.632Z,2.20
2022-08-11T09:17:46.690Z,1.73
2022-08-11T09:20:24.992Z,2.00
2022-08-11T09:26:30.743Z,1.60
2022-08-11T09:29:00.393Z,1.70
2022-08-11T09:31:37.228Z,1.60
2022-08-11T09:34:09.295Z,1.90
2022-08-11T09:36:58.600Z,1.80
2022-08-11T09:39:46.579Z,1.80
2022-08-11T09:42:16.374Z,1.90
2022-08-11T09:44:51.016Z,1.80
2022-08-11T09:47:22.242Z,1.80
2022-08-11T09:49:52.763Z,1.90
2022-08-11T09:52:23.590Z,1.90
2022-08-11T09:54:51.705Z,1.60
2022-08-11T09:57:41.392Z,2.00
2022-08-11T10:00:13.586Z,1.77
2022-08-11T10:02:50.400Z,2.00
2022-08-11T10:05:38.521Z,1.97
2022-08-11T10:08:07.910Z,1.63
2022-08-11T10:10:38.103Z,1.87
2022-08-11T10:14:31.429Z,1.80
2022-08-11T10:16:15.763Z,1.80
2022-08-11T10:18:51.544Z,2.00
2022-08-11T10:21:29.784Z,2.10
2022-08-11T10:24:19.654Z,1.50
2022-08-11T10:26:56.671Z,1.40
2022-08-11T10:29:52.118Z,1.70
2022-08-11T10:32:46.325Z,1.53
2022-08-11T10:35:26.325Z,2.00
2022-08-11T10:38:07.783Z,1.80
2022-08-11T10:40:45.140Z,1.70
2022-08-11T10:43:14.248Z,1.60
2022-08-11T10:46:04.593Z,1.73
2022-08-11T10:48:39.067Z,1.40
2022-08-11T10:51:13.677Z,1.47
2022-08-11T10:54:05.020Z,1.53
2022-08-11T10:56:55.029Z,1.53
2022-08-11T10:59:24.552Z,1.47
2022-08-11T11:01:53.296Z,1.50
2022-08-11T11:04:28.731Z,1.57
2022-08-11T11:07:19.947Z,1.50
2022-08-11T11:09:51.237Z,1.53
2022-08-11T11:12:47.187Z,1.50
2022-08-11T11:15:36.696Z,1.47
2022-08-11T11:18:07.561Z,1.40
2022-08-11T11:20:47.450Z,1.37
2022-08-11T11:23:26.873Z,1.60
2022-08-11T11:26:27.088Z,1.53
2022-08-11T11:29:13.606Z,1.30
2022-08-11T11:32:09.303Z,1.50
2022-08-11T11:35:35.772Z,1.40
2022-08-11T11:38:13.751Z,1.57
2022-08-11T11:40:42.487Z,1.30
2022-08-11T11:43:10.425Z,1.40
2022-08-11T11:45:41.006Z,1.50
2022-08-11T11:48:09.035Z,1.40
2022-08-11T11:50:37.920Z,1.33
2022-08-11T11:53:10.342Z,1.80
2022-08-11T11:55:38.050Z,1.90
2022-08-11T11:58:25.000Z,1.57
2022-08-11T12:01:12.663Z,1.50
2022-08-11T12:03:40.757Z,1.80
2022-08-11T12:06:12.131Z,1.80
2022-08-11T12:08:40.200Z,1.60
2022-08-11T12:11:29.198Z,1.70
2022-08-11T12:14:00.673Z,1.50
2022-08-11T12:16:33.192Z,1.80
2022-08-11T12:19:11.740Z,1.40
2022-08-11T12:22:01.412Z,1.40
2022-08-11T12:24:53.039Z,1.40
2022-08-11T12:27:24.110Z,1.60
2022-08-11T12:29:59.705Z,1.83
2022-08-11T12:32:33.131Z,1.60
2022-08-11T12:35:01.547Z,1.30
2022-08-11T12:37:35.661Z,1.43
2022-08-11T12:40:49.732Z,1.67
2022-08-11T12:43:56.784Z,1.33
2022-08-11T12:46:31.990Z,1.50
2022-08-11T12:49:24.725Z,1.60
2022-08-11T12:52:11.048Z,1.30
2022-08-11T12:54:57.151Z,1.20
2022-08-11T12:57:50.005Z,1.37
2022-08-11T13:00:37.525Z,1.40
2022-08-11T13:03:26.839Z,1.23
2022-08-11T13:05:58.030Z,0.93
2022-08-11T13:08:27.998Z,1.47
2022-08-11T13:11:56.175Z,1.30
2022-08-11T13:14:22.165Z,1.30
2022-08-11T13:17:08.392Z,1.10
2022-08-11T13:19:36.633Z,1.13
2022-08-11T13:22:05.306Z,1.50
2022-08-11T13:24:36.349Z,1.20
2022-08-11T13:27:04.309Z,1.10
2022-08-11T13:29:32.169Z,1.30
2022-08-11T13:32:00.160Z,1.20
2022-08-11T13:34:31.316Z,1.60
2022-08-11T13:37:01.797Z,1.30
2022-08-11T13:39:32.062Z,1.30
2022-08-11T13:42:01.720Z,1.20
2022-08-11T13:44:33.690Z,1.20
2022-08-11T13:47:04.419Z,1.33
2022-08-11T13:49:35.899Z,1.60
2022-08-11T13:52:04.948Z,1.30
2022-08-11T13:54:35.742Z,1.30
2022-08-11T13:57:13.837Z,1.30
2022-08-11T14:00:23.363Z,1.50
2022-08-11T14:02:57.034Z,1.70
2022-08-11T14:05:31.447Z,1.60
2022-08-11T14:08:07.868Z,2.03
2022-08-11T14:12:19.854Z,1.47
2022-08-11T14:14:11.375Z,1.40
2022-08-11T14:16:43.854Z,1.47
2022-08-11T14:19:14.892Z,1.60
2022-08-11T14:22:07.389Z,1.47
2022-08-11T14:24:41.275Z,1.50
2022-08-11T14:27:39.101Z,1.60
2022-08-11T14:30:01.510Z,1.53
2022-08-11T14:32:29.775Z,1.63
2022-08-11T14:34:58.695Z,1.50
2022-08-11T14:37:27.691Z,1.73
2022-08-11T14:40:03.177Z,1.80
2022-08-11T14:42:50.224Z,1.90
2022-08-11T14:45:54.623Z,1.80
2022-08-11T14:48:24.532Z,1.93
2022-08-11T14:50:53.053Z,1.60
2022-08-11T14:53:22.885Z,1.70
2022-08-11T14:56:10.058Z,1.57
2022-08-11T14:58:40.227Z,1.77
2022-08-11T15:01:27.887Z,1.83
2022-08-11T15:04:27.396Z,1.70
2022-08-11T15:06:44.109Z,1.90
2022-08-11T15:09:11.559Z,1.60
2022-08-11T15:11:57.963Z,1.90
2022-08-11T15:14:45.038Z,1.80
2022-08-11T15:17:13.288Z,1.60
2022-08-11T15:20:02.358Z,1.60
2022-08-11T15:22:48.849Z,1.97
2022-08-11T15:25:16.908Z,1.80
2022-08-11T15:28:07.592Z,1.80
2022-08-11T15:30:56.351Z,1.37
2022-08-11T15:33:45.862Z,1.67
2022-08-11T15:36:52.941Z,1.93
2022-08-11T15:39:25.219Z,1.70
2022-08-11T15:42:25.814Z,1.90
2022-08-11T15:45:20.339Z,1.80
2022-08-11T15:48:05.410Z,1.87
2022-08-11T15:50:37.067Z,1.77
2022-08-11T15:53:12.293Z,1.90
2022-08-11T15:55:40.052Z,1.80
2022-08-11T15:58:28.747Z,1.70
2022-08-11T16:01:16.179Z,2.10
2022-08-11T16:04:12.636Z,1.80
2022-08-11T16:06:47.591Z,1.70
2022-08-11T16:09:51.914Z,1.67
2022-08-11T16:12:26.118Z,2.00
2022-08-11T16:15:14.866Z,2.00
2022-08-11T16:17:54.068Z,1.83
2022-08-11T16:20:25.009Z,1.97
2022-08-11T16:23:02.034Z,1.90
2022-08-11T16:27:05.056Z,1.90
2022-08-11T16:28:23.039Z,1.70
2022-08-11T16:30:51.943Z,1.70
2022-08-11T16:33:50.101Z,1.80
2022-08-11T16:36:31.828Z,1.73
2022-08-11T16:39:01.952Z,2.03
2022-08-11T16:41:52.052Z,1.90
2022-08-11T16:44:39.859Z,1.70
2022-08-11T16:47:14.055Z,1.60
2022-08-11T16:49:52.248Z,2.00
2022-08-11T16:52:22.924Z,1.57
2022-08-11T16:54:52.718Z,2.00
2022-08-11T16:57:44.333Z,1.70
2022-08-11T17:00:15.417Z,2.00
2022-08-11T17:03:10.156Z,1.50
2022-08-11T17:06:03.879Z,1.77
2022-08-11T17:09:04.729Z,1.70
2022-08-11T17:11:58.248Z,1.80
2022-08-11T17:14:49.592Z,1.60
2022-08-11T17:17:38.769Z,1.87
2022-08-11T17:20:39.490Z,1.60
2022-08-11T17:23:19.634Z,1.50
2022-08-11T17:25:59.421Z,1.70
2022-08-11T17:28:34.316Z,1.67
2022-08-11T17:31:22.247Z,1.47
2022-08-11T17:34:10.981Z,1.70
2022-08-11T17:36:44.561Z,1.67
2022-08-11T17:39:15.328Z,1.63
2022-08-11T17:42:03.098Z,1.53
2022-08-11T17:44:50.526Z,1.80
2022-08-11T17:47:37.378Z,1.60
2022-08-11T17:50:14.661Z,1.60
2022-08-11T17:53:05.345Z,1.90
2022-08-11T17:55:57.891Z,1.53
2022-08-11T17:58:45.512Z,1.60
2022-08-11T18:01:14.435Z,1.70
2022-08-11T18:03:56.247Z,1.60
2022-08-11T18:06:34.884Z,1.63
2022-08-11T18:09:26.761Z,1.50
2022-08-11T18:12:14.172Z,1.73
2022-08-11T18:15:04.784Z,1.43
2022-08-11T18:17:51.170Z,1.60
2022-08-11T18:20:37.588Z,1.67
2022-08-11T18:23:45.541Z,1.60
2022-08-11T18:26:38.466Z,1.67
2022-08-11T18:29:27.392Z,2.20
2022-08-11T18:32:21.256Z,1.50
2022-08-11T18:35:10.974Z,1.80
2022-08-11T18:38:04.838Z,1.67
2022-08-11T18:40:54.654Z,1.57
2022-08-11T18:43:45.047Z,1.60
2022-08-11T18:46:36.794Z,2.10
2022-08-11T18:50:00.948Z,1.70
2022-08-11T18:52:58.166Z,2.00
2022-08-11T18:55:44.591Z,2.30
2022-08-11T18:58:33.622Z,1.63
2022-08-11T19:01:22.419Z,2.03
2022-08-11T19:04:10.863Z,2.00
2022-08-11T19:07:01.188Z,2.00
2022-08-11T19:09:49.666Z,2.00
2022-08-11T19:12:36.837Z,2.30
2022-08-11T19:15:24.900Z,2.30
2022-08-11T19:18:12.228Z,2.60
2022-08-11T19:21:02.393Z,2.10
2022-08-11T19:23:57.277Z,2.00
2022-08-11T19:26:43.595Z,1.90
2022-08-11T19:30:05.207Z,2.00
2022-08-11T19:32:58.576Z,2.00
2022-08-11T19:35:45.034Z,2.30
2022-08-11T19:38:32.059Z,2.00
2022-08-11T19:41:56.467Z,2.07
2022-08-11T19:44:27.384Z,2.20
2022-08-11T19:47:15.217Z,2.10
2022-08-11T19:50:02.527Z,2.07
2022-08-11T19:52:50.662Z,2.00
2022-08-11T19:55:37.634Z,2.23
2022-08-11T19:58:26.667Z,1.83
2022-08-11T20:01:12.749Z,2.47
2022-08-11T20:03:58.923Z,2.13
2022-08-11T20:06:45.917Z,2.20
2022-08-11T20:10:05.140Z,2.20
2022-08-11T20:12:41.431Z,1.93
2022-08-11T20:15:28.776Z,2.00
2022-08-11T20:18:16.401Z,1.67
2022-08-11T20:21:03.056Z,1.70
2022-08-11T20:24:08.982Z,1.70
2022-08-11T20:26:56.276Z,1.87
2022-08-11T20:29:47.315Z,1.83
2022-08-11T20:32:35.081Z,2.03
2022-08-11T20:35:23.823Z,1.50
2022-08-11T20:38:13.842Z,1.97
2022-08-11T20:41:01.094Z,1.97
2022-08-11T20:44:08.010Z,1.80
2022-08-11T20:46:57.335Z,1.47
2022-08-11T20:49:53.789Z,1.73
2022-08-11T20:52:47.389Z,1.50
2022-08-11T20:55:46.439Z,1.73
2022-08-11T21:01:47.050Z,1.90
2022-08-11T21:04:54.762Z,1.90
2022-08-11T21:07:44.957Z,1.80
2022-08-11T21:10:46.903Z,2.20
2022-08-11T21:13:37.203Z,2.00
2022-08-11T21:16:27.499Z,2.00
2022-08-11T21:20:01.378Z,1.70
2022-08-11T21:22:32.351Z,1.77
2022-08-11T21:25:20.817Z,1.80
2022-08-11T21:28:09.365Z,2.13
2022-08-11T21:30:57.794Z,2.23
2022-08-11T21:33:47.322Z,1.67
2022-08-11T21:36:34.007Z,1.67
2022-08-11T21:39:25.163Z,1.77
2022-08-11T21:42:13.386Z,1.67
2022-08-11T21:45:01.635Z,1.93
2022-08-11T21:47:49.219Z,2.37
2022-08-11T21:50:35.239Z,1.80
2022-08-11T21:53:21.612Z,1.90
2022-08-11T21:56:10.596Z,1.60
2022-08-11T21:58:59.268Z,1.80
2022-08-11T22:01:54.457Z,1.53
2022-08-11T22:04:40.549Z,1.83
2022-08-11T22:07:27.348Z,1.80
2022-08-11T22:10:40.379Z,2.00
2022-08-11T22:13:19.566Z,1.80
2022-08-11T22:16:05.603Z,2.20
2022-08-11T22:18:53.994Z,1.90
2022-08-11T22:22:01.082Z,2.33
2022-08-11T22:24:49.009Z,2.27
2022-08-11T22:27:34.916Z,1.93
2022-08-11T22:30:20.989Z,1.90
2022-08-11T22:33:07.052Z,2.40
2022-08-11T22:35:54.063Z,2.60
2022-08-11T22:38:41.189Z,2.23
2022-08-11T22:41:26.999Z,2.60
2022-08-11T22:44:12.744Z,2.47
2022-08-11T22:47:00.291Z,1.73
2022-08-11T22:49:57.792Z,2.10
2022-08-11T22:52:47.746Z,1.70
2022-08-11T22:55:35.086Z,1.90
2022-08-11T22:58:21.934Z,2.00
2022-08-11T23:01:08.726Z,2.30
2022-08-11T23:03:55.695Z,1.80
2022-08-11T23:06:42.561Z,2.10
2022-08-11T23:09:29.092Z,1.90
2022-08-11T23:12:16.143Z,1.87
2022-08-11T23:15:02.946Z,2.47
2022-08-11T23:17:50.765Z,2.57
2022-08-11T23:20:46.910Z,2.07
2022-08-11T23:23:37.608Z,2.23
2022-08-11T23:26:24.738Z,1.83
2022-08-11T23:29:11.920Z,2.30
2022-08-11T23:31:58.685Z,1.70
2022-08-11T23:35:03.598Z,1.90
2022-08-11T23:37:51.638Z,2.23
2022-08-11T23:40:37.539Z,1.93
2022-08-11T23:43:23.738Z,1.90
2022-08-11T23:46:09.670Z,1.70
2022-08-11T23:49:00.281Z,2.03
2022-08-11T23:51:47.854Z,1.80
2022-08-11T23:54:37.451Z,1.80
2022-08-11T23:57:24.089Z,1.90
